HAIKU LOWW-LHPP
Flight info
| Callsign | HAIKU |
|---|---|
| Flight time | N/A |
| Altitude | 3000 |
| Route | LOBC LHLI DCT GYR DCT LHEM DCT LHTL DCT LHKA/N0177F080 |
| Aircraft | KODI/L-SBDGRY/S |
Departure
| Time | 2026-05-01 09:17 |
|---|---|
| Airport | Vienna International Airport (LOWW) |
Arrival
| Time | N/A |
|---|---|
| Airport | Pécs-Pogány International Airport (LHPP) |
| Time | Latitude | Longitude | Altitude | Speed | Heading |
|---|---|---|---|---|---|
| 2026-05-01 08:57 | 48.12557 | 16.53574 | 590 ft | 0 kts | 296° |
| 2026-05-01 09:06 | 48.12559 | 16.53569 | 590 ft | 3 kts | 297° |
| 2026-05-01 09:07 | 48.12565 | 16.53514 | 590 ft | 8 kts | 229° |
| 2026-05-01 09:07 | 48.12499 | 16.53501 | 592 ft | 12 kts | 189° |
| 2026-05-01 09:07 | 48.12425 | 16.53538 | 594 ft | 14 kts | 123° |
| 2026-05-01 09:07 | 48.12379 | 16.53689 | 593 ft | 19 kts | 113° |
| 2026-05-01 09:08 | 48.12317 | 16.53880 | 593 ft | 21 kts | 117° |
| 2026-05-01 09:08 | 48.12247 | 16.54087 | 594 ft | 22 kts | 116° |
| 2026-05-01 09:08 | 48.12180 | 16.54296 | 597 ft | 21 kts | 115° |
| 2026-05-01 09:08 | 48.12172 | 16.54321 | 597 ft | 0 kts | 115° |
| 2026-05-01 09:09 | 48.12171 | 16.54325 | 597 ft | 3 kts | 115° |
| 2026-05-01 09:09 | 48.12152 | 16.54384 | 597 ft | 10 kts | 115° |
| 2026-05-01 09:09 | 48.12115 | 16.54496 | 599 ft | 14 kts | 117° |
| 2026-05-01 09:10 | 48.12072 | 16.54630 | 603 ft | 16 kts | 114° |
| 2026-05-01 09:10 | 48.12015 | 16.54800 | 603 ft | 20 kts | 116° |
| 2026-05-01 09:10 | 48.11957 | 16.54999 | 611 ft | 22 kts | 110° |
| 2026-05-01 09:10 | 48.11880 | 16.55224 | 604 ft | 26 kts | 117° |
| 2026-05-01 09:11 | 48.11802 | 16.55478 | 614 ft | 28 kts | 112° |
| 2026-05-01 09:11 | 48.11715 | 16.55741 | 610 ft | 29 kts | 117° |
| 2026-05-01 09:11 | 48.11623 | 16.56012 | 621 ft | 30 kts | 115° |
| 2026-05-01 09:11 | 48.11526 | 16.56312 | 613 ft | 34 kts | 115° |
| 2026-05-01 09:12 | 48.11418 | 16.56634 | 614 ft | 35 kts | 115° |
| 2026-05-01 09:12 | 48.11313 | 16.56960 | 623 ft | 33 kts | 116° |
| 2026-05-01 09:12 | 48.11205 | 16.57279 | 619 ft | 34 kts | 117° |
| 2026-05-01 09:12 | 48.11100 | 16.57611 | 615 ft | 32 kts | 117° |
| 2026-05-01 09:13 | 48.11003 | 16.57810 | 611 ft | 21 kts | 159° |
| 2026-05-01 09:13 | 48.10856 | 16.57874 | 614 ft | 24 kts | 164° |
| 2026-05-01 09:13 | 48.10688 | 16.57946 | 613 ft | 26 kts | 162° |
| 2026-05-01 09:13 | 48.10501 | 16.58023 | 616 ft | 29 kts | 164° |
| 2026-05-01 09:14 | 48.10296 | 16.58108 | 613 ft | 32 kts | 164° |
| 2026-05-01 09:14 | 48.10114 | 16.58192 | 612 ft | 18 kts | 147° |
| 2026-05-01 09:14 | 48.10100 | 16.58318 | 611 ft | 15 kts | 72° |
| 2026-05-01 09:14 | 48.10130 | 16.58390 | 609 ft | 0 kts | 33° |
| 2026-05-01 09:15 | 48.10131 | 16.58390 | 609 ft | 1 kts | 33° |
| 2026-05-01 09:15 | 48.10180 | 16.58417 | 607 ft | 15 kts | 11° |
| 2026-05-01 09:16 | 48.10309 | 16.58461 | 614 ft | 23 kts | 9° |
| 2026-05-01 09:16 | 48.10497 | 16.58444 | 602 ft | 38 kts | 346° |
| 2026-05-01 09:16 | 48.10929 | 16.58263 | 701 ft | 81 kts | 347° |
| 2026-05-01 09:17 | 48.12221 | 16.57735 | 1315 ft | 100 kts | 347° |
| 2026-05-01 09:17 | 48.12933 | 16.57456 | 1663 ft | 110 kts | 347° |
| 2026-05-01 09:17 | 48.14591 | 16.56562 | 1818 ft | 149 kts | 323° |
| 2026-05-01 09:18 | 48.15313 | 16.55403 | 1788 ft | 149 kts | 312° |
| 2026-05-01 09:18 | 48.16499 | 16.53035 | 2044 ft | 142 kts | 310° |
| 2026-05-01 09:19 | 48.17729 | 16.50648 | 2098 ft | 146 kts | 310° |
| 2026-05-01 09:19 | 48.18351 | 16.49410 | 1999 ft | 152 kts | 310° |
| 2026-05-01 09:19 | 48.19001 | 16.48176 | 1845 ft | 150 kts | 314° |
| 2026-05-01 09:20 | 48.20316 | 16.45968 | 2020 ft | 143 kts | 313° |
| 2026-05-01 09:20 | 48.21737 | 16.43766 | 2050 ft | 147 kts | 317° |
| 2026-05-01 09:21 | 48.23261 | 16.41692 | 1927 ft | 148 kts | 320° |
| 2026-05-01 09:21 | 48.23884 | 16.40572 | 2097 ft | 142 kts | 291° |
| 2026-05-01 09:21 | 48.23025 | 16.38163 | 2218 ft | 158 kts | 191° |
| 2026-05-01 09:22 | 48.21098 | 16.39744 | 1904 ft | 166 kts | 118° |
| 2026-05-01 09:22 | 48.20021 | 16.42695 | 1985 ft | 158 kts | 116° |
| 2026-05-01 09:23 | 48.19439 | 16.44072 | 2037 ft | 157 kts | 121° |
| 2026-05-01 09:23 | 48.18196 | 16.46702 | 2222 ft | 156 kts | 124° |
| 2026-05-01 09:24 | 48.16833 | 16.49300 | 2388 ft | 160 kts | 125° |
| 2026-05-01 09:24 | 48.16155 | 16.50600 | 2493 ft | 156 kts | 121° |
| 2026-05-01 09:24 | 48.15138 | 16.53402 | 2666 ft | 153 kts | 111° |
| 2026-05-01 09:25 | 48.14212 | 16.56306 | 2719 ft | 158 kts | 112° |
| 2026-05-01 09:25 | 48.13436 | 16.59310 | 2807 ft | 154 kts | 102° |
| 2026-05-01 09:26 | 48.13143 | 16.60825 | 2953 ft | 148 kts | 99° |
| 2026-05-01 09:26 | 48.12525 | 16.63843 | 2989 ft | 155 kts | 102° |
| 2026-05-01 09:26 | 48.12278 | 16.65377 | 3069 ft | 149 kts | 95° |
| 2026-05-01 09:27 | 48.12058 | 16.68459 | 3101 ft | 153 kts | 88° |
| 2026-05-01 09:27 | 48.12032 | 16.70053 | 3052 ft | 151 kts | 82° |
| 2026-05-01 09:27 | 48.12042 | 16.71588 | 3068 ft | 152 kts | 85° |
| 2026-05-01 09:28 | 48.11993 | 16.73194 | 2969 ft | 154 kts | 88° |
| 2026-05-01 09:28 | 48.11902 | 16.74765 | 3019 ft | 151 kts | 90° |
| 2026-05-01 09:28 | 48.11801 | 16.76304 | 3137 ft | 146 kts | 90° |
| 2026-05-01 09:28 | 48.11700 | 16.77795 | 3284 ft | 142 kts | 90° |
| 2026-05-01 09:29 | 48.11644 | 16.80834 | 3234 ft | 152 kts | 85° |
| 2026-05-01 09:29 | 48.11698 | 16.82417 | 3136 ft | 153 kts | 77° |
| 2026-05-01 09:30 | 48.12362 | 16.85358 | 2988 ft | 150 kts | 64° |
| 2026-05-01 09:30 | 48.12726 | 16.86832 | 2904 ft | 152 kts | 64° |
| 2026-05-01 09:30 | 48.13405 | 16.89843 | 2787 ft | 153 kts | 68° |
| 2026-05-01 09:31 | 48.13708 | 16.91371 | 2834 ft | 150 kts | 65° |
| 2026-05-01 09:31 | 48.14196 | 16.92709 | 2863 ft | 149 kts | 53° |
| 2026-05-01 09:31 | 48.15696 | 16.94944 | 2142 ft | 165 kts | 29° |
| 2026-05-01 09:32 | 48.16676 | 16.95904 | 1382 ft | 168 kts | 36° |
| 2026-05-01 09:32 | 48.16696 | 16.98570 | 1045 ft | 163 kts | 129° |
| 2026-05-01 09:32 | 48.15975 | 16.99717 | 1197 ft | 152 kts | 131° |
| 2026-05-01 09:33 | 48.15154 | 17.00841 | 1141 ft | 154 kts | 135° |
| 2026-05-01 09:33 | 48.14518 | 17.02063 | 1168 ft | 152 kts | 120° |
| 2026-05-01 09:33 | 48.14052 | 17.04963 | 1355 ft | 145 kts | 86° |
| 2026-05-01 09:34 | 48.14004 | 17.06479 | 1344 ft | 149 kts | 91° |
| 2026-05-01 09:34 | 48.13901 | 17.08028 | 1350 ft | 147 kts | 91° |
| 2026-05-01 09:34 | 48.13746 | 17.11073 | 1491 ft | 150 kts | 89° |
| 2026-05-01 09:35 | 48.13676 | 17.12610 | 1499 ft | 150 kts | 92° |
| 2026-05-01 09:35 | 48.12302 | 17.14606 | 1843 ft | 156 kts | 180° |
| 2026-05-01 09:35 | 48.11222 | 17.14598 | 2139 ft | 153 kts | 181° |
| 2026-05-01 09:36 | 48.10159 | 17.14623 | 2337 ft | 160 kts | 178° |
| 2026-05-01 09:36 | 48.09064 | 17.14760 | 2648 ft | 150 kts | 174° |
| 2026-05-01 09:36 | 48.08014 | 17.15085 | 2682 ft | 162 kts | 156° |
| 2026-05-01 09:36 | 48.07336 | 17.15590 | 2658 ft | 166 kts | 146° |
| 2026-05-01 09:37 | 48.06135 | 17.16952 | 2745 ft | 160 kts | 142° |
| 2026-05-01 09:37 | 48.04279 | 17.18758 | 2929 ft | 165 kts | 145° |
| 2026-05-01 09:37 | 48.03290 | 17.19667 | 2951 ft | 166 kts | 145° |
| 2026-05-01 09:38 | 48.01907 | 17.21627 | 2831 ft | 169 kts | 124° |
| 2026-05-01 09:38 | 48.00983 | 17.23360 | 3070 ft | 152 kts | 126° |
| 2026-05-01 09:38 | 48.00552 | 17.24174 | 3175 ft | 149 kts | 124° |
| 2026-05-01 09:39 | 47.99045 | 17.27087 | 3213 ft | 160 kts | 126° |
| 2026-05-01 09:39 | 47.98280 | 17.28340 | 3083 ft | 166 kts | 131° |
| 2026-05-01 09:39 | 47.97469 | 17.29577 | 2996 ft | 166 kts | 131° |
| 2026-05-01 09:40 | 47.96703 | 17.30752 | 3329 ft | 148 kts | 128° |
| 2026-05-01 09:40 | 47.95379 | 17.32509 | 3400 ft | 162 kts | 138° |
| 2026-05-01 09:40 | 47.94487 | 17.33578 | 3341 ft | 166 kts | 136° |
| 2026-05-01 09:41 | 47.93588 | 17.34643 | 3365 ft | 164 kts | 138° |
| 2026-05-01 09:41 | 47.91838 | 17.37348 | 3567 ft | 156 kts | 124° |
| 2026-05-01 09:41 | 47.91077 | 17.38554 | 3554 ft | 161 kts | 130° |
| 2026-05-01 09:42 | 47.90581 | 17.39395 | 3524 ft | 160 kts | 123° |
| 2026-05-01 09:42 | 47.90001 | 17.40817 | 3324 ft | 169 kts | 121° |
| 2026-05-01 09:42 | 47.88425 | 17.43358 | 3281 ft | 162 kts | 131° |
| 2026-05-01 09:43 | 47.86774 | 17.45512 | 3471 ft | 156 kts | 135° |
| 2026-05-01 09:43 | 47.85926 | 17.46531 | 3588 ft | 156 kts | 141° |
| 2026-05-01 09:43 | 47.85028 | 17.47463 | 3616 ft | 162 kts | 142° |
| 2026-05-01 09:44 | 47.83096 | 17.49340 | 3330 ft | 170 kts | 147° |
| 2026-05-01 09:44 | 47.82079 | 17.50258 | 3179 ft | 171 kts | 141° |
| 2026-05-01 09:44 | 47.81097 | 17.51240 | 3092 ft | 167 kts | 143° |
| 2026-05-01 09:45 | 47.80129 | 17.52171 | 3061 ft | 165 kts | 145° |
| 2026-05-01 09:45 | 47.78959 | 17.53311 | 3012 ft | 163 kts | 142° |
| 2026-05-01 09:47 | 47.78558 | 17.53715 | 3065 ft | 162 kts | 144° |
| 2026-05-01 09:47 | 47.77640 | 17.54671 | 3138 ft | 159 kts | 141° |
| 2026-05-01 09:47 | 47.76755 | 17.55677 | 3201 ft | 163 kts | 139° |
| 2026-05-01 09:47 | 47.75837 | 17.56767 | 3018 ft | 173 kts | 140° |
| 2026-05-01 09:48 | 47.74954 | 17.57883 | 3085 ft | 163 kts | 136° |
| 2026-05-01 09:48 | 47.74104 | 17.58985 | 3181 ft | 161 kts | 136° |
| 2026-05-01 09:48 | 47.73336 | 17.60145 | 3227 ft | 161 kts | 130° |
| 2026-05-01 09:48 | 47.72551 | 17.61383 | 3134 ft | 167 kts | 133° |
| 2026-05-01 09:49 | 47.71715 | 17.62618 | 3004 ft | 169 kts | 135° |
| 2026-05-01 09:49 | 47.70855 | 17.63777 | 2986 ft | 166 kts | 134° |
| 2026-05-01 09:49 | 47.70001 | 17.64841 | 3182 ft | 155 kts | 138° |
| 2026-05-01 09:49 | 47.69354 | 17.66046 | 3259 ft | 153 kts | 109° |
| 2026-05-01 09:50 | 47.69010 | 17.67578 | 3189 ft | 158 kts | 101° |
| 2026-05-01 09:50 | 47.68456 | 17.68988 | 3114 ft | 165 kts | 128° |
| 2026-05-01 09:50 | 47.67622 | 17.70234 | 2958 ft | 168 kts | 133° |
| 2026-05-01 09:50 | 47.66798 | 17.71392 | 2917 ft | 163 kts | 136° |
| 2026-05-01 09:51 | 47.65961 | 17.72540 | 2854 ft | 162 kts | 129° |
| 2026-05-01 09:51 | 47.65307 | 17.73867 | 2886 ft | 156 kts | 118° |
| 2026-05-01 09:51 | 47.64740 | 17.75224 | 2957 ft | 155 kts | 118° |
| 2026-05-01 09:51 | 47.64200 | 17.76614 | 2976 ft | 156 kts | 114° |
| 2026-05-01 09:52 | 47.63804 | 17.78132 | 2865 ft | 160 kts | 100° |
| 2026-05-01 09:52 | 47.63541 | 17.79727 | 2871 ft | 157 kts | 97° |
| 2026-05-01 09:52 | 47.63356 | 17.81302 | 2889 ft | 154 kts | 99° |
| 2026-05-01 09:52 | 47.63106 | 17.82833 | 2935 ft | 155 kts | 101° |
| 2026-05-01 09:53 | 47.62855 | 17.84379 | 2984 ft | 154 kts | 99° |
| 2026-05-01 09:53 | 47.62672 | 17.85940 | 3028 ft | 153 kts | 94° |
| 2026-05-01 09:53 | 47.62622 | 17.87517 | 2975 ft | 153 kts | 89° |
| 2026-05-01 09:53 | 47.62588 | 17.89122 | 2927 ft | 157 kts | 88° |
| 2026-05-01 09:54 | 47.62746 | 17.90713 | 2927 ft | 156 kts | 70° |
| 2026-05-01 09:54 | 47.63237 | 17.92124 | 2914 ft | 155 kts | 49° |
| 2026-05-01 09:54 | 47.64037 | 17.93180 | 2920 ft | 150 kts | 38° |
| 2026-05-01 09:54 | 47.64757 | 17.94269 | 3068 ft | 150 kts | 47° |
| 2026-05-01 09:55 | 47.65440 | 17.95445 | 3055 ft | 155 kts | 47° |
| 2026-05-01 09:55 | 47.66131 | 17.96698 | 2909 ft | 157 kts | 51° |
| 2026-05-01 09:55 | 47.66705 | 17.98046 | 2963 ft | 153 kts | 60° |
| 2026-05-01 09:55 | 47.67146 | 17.99497 | 2942 ft | 156 kts | 64° |
| 2026-05-01 09:56 | 47.67528 | 18.01027 | 2809 ft | 160 kts | 69° |
| 2026-05-01 09:56 | 47.67857 | 18.02557 | 2955 ft | 152 kts | 72° |
| 2026-05-01 09:56 | 47.68151 | 18.04061 | 3006 ft | 152 kts | 74° |
| 2026-05-01 09:56 | 47.68399 | 18.05558 | 3154 ft | 148 kts | 74° |
| 2026-05-01 09:57 | 47.68651 | 18.07071 | 3119 ft | 154 kts | 73° |
| 2026-05-01 09:57 | 47.68860 | 18.08577 | 3229 ft | 149 kts | 81° |
| 2026-05-01 09:57 | 47.68981 | 18.10063 | 3463 ft | 140 kts | 79° |
| 2026-05-01 09:57 | 47.69115 | 18.11452 | 3755 ft | 132 kts | 80° |
| 2026-05-01 09:58 | 47.69247 | 18.12731 | 4182 ft | 120 kts | 78° |
| 2026-05-01 09:58 | 47.69353 | 18.13926 | 4609 ft | 114 kts | 81° |
| 2026-05-01 09:58 | 47.69427 | 18.15086 | 4995 ft | 112 kts | 80° |
| 2026-05-01 09:58 | 47.69549 | 18.16239 | 5286 ft | 117 kts | 77° |
| 2026-05-01 09:59 | 47.69697 | 18.17500 | 5388 ft | 129 kts | 77° |
| 2026-05-01 09:59 | 47.69869 | 18.18811 | 5512 ft | 134 kts | 75° |
| 2026-05-01 09:59 | 47.70055 | 18.20179 | 5626 ft | 137 kts | 75° |
| 2026-05-01 09:59 | 47.70260 | 18.21583 | 5659 ft | 141 kts | 75° |
| 2026-05-01 10:00 | 47.70474 | 18.23014 | 5675 ft | 143 kts | 74° |
| 2026-05-01 10:00 | 47.70696 | 18.24463 | 5672 ft | 144 kts | 73° |
| 2026-05-01 10:00 | 47.70962 | 18.25903 | 5680 ft | 144 kts | 71° |
| 2026-05-01 10:00 | 47.71252 | 18.27322 | 5680 ft | 143 kts | 69° |
| 2026-05-01 10:01 | 47.71551 | 18.28725 | 5691 ft | 143 kts | 70° |
| 2026-05-01 10:01 | 47.71828 | 18.30126 | 5735 ft | 144 kts | 70° |
| 2026-05-01 10:01 | 47.72110 | 18.31565 | 5706 ft | 147 kts | 71° |
| 2026-05-01 10:01 | 47.72392 | 18.33032 | 5664 ft | 147 kts | 71° |
| 2026-05-01 10:02 | 47.72629 | 18.34469 | 5767 ft | 142 kts | 75° |
| 2026-05-01 10:02 | 47.72870 | 18.35902 | 5729 ft | 144 kts | 72° |
| 2026-05-01 10:02 | 47.73120 | 18.37363 | 5668 ft | 147 kts | 74° |
| 2026-05-01 10:02 | 47.73334 | 18.38841 | 5660 ft | 147 kts | 77° |
| 2026-05-01 10:03 | 47.73511 | 18.40348 | 5684 ft | 150 kts | 79° |
| 2026-05-01 10:03 | 47.73658 | 18.41884 | 5629 ft | 154 kts | 77° |
| 2026-05-01 10:03 | 47.73843 | 18.43451 | 5575 ft | 155 kts | 79° |
| 2026-05-01 10:03 | 47.73961 | 18.45042 | 5548 ft | 155 kts | 84° |
| 2026-05-01 10:04 | 47.74050 | 18.46649 | 5482 ft | 156 kts | 81° |
| 2026-05-01 10:04 | 47.74145 | 18.48251 | 5422 ft | 155 kts | 83° |
| 2026-05-01 10:04 | 47.74228 | 18.49841 | 5497 ft | 152 kts | 84° |
| 2026-05-01 10:04 | 47.74296 | 18.51409 | 5478 ft | 153 kts | 84° |
| 2026-05-01 10:05 | 47.74400 | 18.52974 | 5507 ft | 151 kts | 80° |
| 2026-05-01 10:05 | 47.74556 | 18.54506 | 5424 ft | 155 kts | 79° |
| 2026-05-01 10:05 | 47.74747 | 18.56055 | 5430 ft | 150 kts | 78° |
| 2026-05-01 10:05 | 47.74947 | 18.57555 | 5506 ft | 146 kts | 76° |
| 2026-05-01 10:06 | 47.75191 | 18.59037 | 5491 ft | 150 kts | 73° |
| 2026-05-01 10:06 | 47.75481 | 18.60544 | 5469 ft | 152 kts | 71° |
| 2026-05-01 10:06 | 47.75817 | 18.62014 | 5532 ft | 147 kts | 69° |
| 2026-05-01 10:06 | 47.76170 | 18.63426 | 5610 ft | 145 kts | 67° |
| 2026-05-01 10:07 | 47.76541 | 18.64848 | 5574 ft | 150 kts | 67° |
| 2026-05-01 10:07 | 47.76935 | 18.66282 | 5501 ft | 154 kts | 65° |
| 2026-05-01 10:07 | 47.77397 | 18.67729 | 5394 ft | 155 kts | 62° |
| 2026-05-01 10:07 | 47.77924 | 18.69126 | 5306 ft | 154 kts | 58° |
| 2026-05-01 10:08 | 47.79041 | 18.71775 | 5278 ft | 149 kts | 58° |
| 2026-05-01 10:08 | 47.79557 | 18.73103 | 5301 ft | 147 kts | 62° |
| 2026-05-01 10:08 | 47.79952 | 18.74510 | 5279 ft | 149 kts | 71° |
| 2026-05-01 10:09 | 47.80178 | 18.76022 | 5244 ft | 151 kts | 82° |
| 2026-05-01 10:09 | 47.80193 | 18.77576 | 5269 ft | 149 kts | 91° |
| 2026-05-01 10:09 | 47.80064 | 18.79065 | 5393 ft | 146 kts | 97° |
| 2026-05-01 10:09 | 47.79850 | 18.80549 | 5444 ft | 148 kts | 101° |
| 2026-05-01 10:10 | 47.79592 | 18.82033 | 5447 ft | 149 kts | 102° |
| 2026-05-01 10:10 | 47.79313 | 18.83533 | 5432 ft | 152 kts | 103° |
| 2026-05-01 10:10 | 47.78679 | 18.86590 | 5312 ft | 156 kts | 106° |
| 2026-05-01 10:11 | 47.78357 | 18.88149 | 5315 ft | 159 kts | 102° |
| 2026-05-01 10:11 | 47.78051 | 18.89728 | 5345 ft | 158 kts | 104° |
| 2026-05-01 10:11 | 47.77761 | 18.91303 | 5365 ft | 157 kts | 101° |
| 2026-05-01 10:11 | 47.77516 | 18.92853 | 5363 ft | 155 kts | 101° |
| 2026-05-01 10:12 | 47.77270 | 18.94405 | 5400 ft | 155 kts | 101° |
| 2026-05-01 10:12 | 47.77036 | 18.95996 | 5305 ft | 162 kts | 103° |
| 2026-05-01 10:12 | 47.76209 | 18.99087 | 5393 ft | 156 kts | 112° |
| 2026-05-01 10:13 | 47.75733 | 19.00542 | 5422 ft | 158 kts | 112° |
| 2026-05-01 10:13 | 47.75278 | 19.02040 | 5385 ft | 160 kts | 113° |
| 2026-05-01 10:13 | 47.74728 | 19.03472 | 5385 ft | 161 kts | 123° |
| 2026-05-01 10:14 | 47.73115 | 19.05767 | 5355 ft | 162 kts | 140° |
| 2026-05-01 10:14 | 47.72181 | 19.06702 | 5356 ft | 164 kts | 150° |
| 2026-05-01 10:14 | 47.71121 | 19.07368 | 5333 ft | 167 kts | 160° |
| 2026-05-01 10:14 | 47.69999 | 19.07783 | 5334 ft | 167 kts | 172° |
| 2026-05-01 10:15 | 47.68842 | 19.07910 | 5321 ft | 166 kts | 180° |
| 2026-05-01 10:15 | 47.67692 | 19.07896 | 5384 ft | 164 kts | 180° |
| 2026-05-01 10:15 | 47.66559 | 19.08008 | 5475 ft | 163 kts | 172° |
| 2026-05-01 10:15 | 47.65431 | 19.08165 | 5501 ft | 165 kts | 179° |
| 2026-05-01 10:16 | 47.64285 | 19.08096 | 5479 ft | 168 kts | 185° |
| 2026-05-01 10:16 | 47.63138 | 19.07881 | 5541 ft | 164 kts | 190° |
| 2026-05-01 10:16 | 47.60849 | 19.07290 | 5475 ft | 171 kts | 192° |
| 2026-05-01 10:17 | 47.59678 | 19.06909 | 5371 ft | 173 kts | 195° |
| 2026-05-01 10:17 | 47.57411 | 19.06036 | 5427 ft | 163 kts | 195° |
| 2026-05-01 10:17 | 47.56314 | 19.05634 | 5458 ft | 163 kts | 194° |
| 2026-05-01 10:18 | 47.54070 | 19.05021 | 5409 ft | 166 kts | 191° |
| 2026-05-01 10:18 | 47.52952 | 19.04771 | 5394 ft | 163 kts | 189° |
| 2026-05-01 10:18 | 47.51837 | 19.04557 | 5389 ft | 162 kts | 189° |
| 2026-05-01 10:19 | 47.50711 | 19.04279 | 5305 ft | 166 kts | 191° |
| 2026-05-01 10:19 | 47.49568 | 19.04033 | 5254 ft | 165 kts | 189° |
| 2026-05-01 10:19 | 47.48442 | 19.03755 | 5279 ft | 163 kts | 193° |
| 2026-05-01 10:20 | 47.46246 | 19.02980 | 5411 ft | 160 kts | 196° |
| 2026-05-01 10:20 | 47.45195 | 19.02510 | 5481 ft | 161 kts | 199° |
| 2026-05-01 10:20 | 47.44128 | 19.01984 | 5497 ft | 162 kts | 199° |
| 2026-05-01 10:20 | 47.43059 | 19.01445 | 5532 ft | 162 kts | 201° |
| 2026-05-01 10:21 | 47.42013 | 19.00824 | 5563 ft | 162 kts | 202° |
| 2026-05-01 10:21 | 47.39902 | 18.99597 | 5591 ft | 164 kts | 202° |
| 2026-05-01 10:21 | 47.38836 | 18.98968 | 5604 ft | 165 kts | 203° |
| 2026-05-01 10:22 | 47.36697 | 18.97640 | 5507 ft | 169 kts | 204° |
| 2026-05-01 10:22 | 47.34555 | 18.96321 | 5511 ft | 166 kts | 205° |
| 2026-05-01 10:23 | 47.33550 | 18.95506 | 5536 ft | 164 kts | 212° |
| 2026-05-01 10:23 | 47.31488 | 18.94110 | 5560 ft | 164 kts | 199° |
| 2026-05-01 10:23 | 47.30410 | 18.93538 | 5539 ft | 165 kts | 201° |
| 2026-05-01 10:24 | 47.28302 | 18.92322 | 5607 ft | 163 kts | 202° |
| 2026-05-01 10:24 | 47.26146 | 18.91276 | 5662 ft | 164 kts | 194° |
| 2026-05-01 10:25 | 47.23875 | 18.90341 | 5450 ft | 174 kts | 198° |
| 2026-05-01 10:25 | 47.21553 | 18.89322 | 5235 ft | 168 kts | 199° |
| 2026-05-01 10:26 | 47.20432 | 18.88854 | 5195 ft | 166 kts | 195° |
| 2026-05-01 10:26 | 47.19307 | 18.88439 | 5139 ft | 167 kts | 195° |
| 2026-05-01 10:26 | 47.17085 | 18.87684 | 5139 ft | 160 kts | 194° |
| 2026-05-01 10:27 | 47.14916 | 18.87318 | 5371 ft | 158 kts | 179° |
| 2026-05-01 10:27 | 47.12732 | 18.87395 | 5654 ft | 154 kts | 175° |
| 2026-05-01 10:28 | 47.11642 | 18.87538 | 5675 ft | 161 kts | 172° |
| 2026-05-01 10:28 | 47.09408 | 18.88171 | 5738 ft | 165 kts | 165° |
| 2026-05-01 10:28 | 47.08283 | 18.88571 | 5651 ft | 171 kts | 165° |
| 2026-05-01 10:29 | 47.05934 | 18.89320 | 5436 ft | 172 kts | 169° |
| 2026-05-01 10:29 | 47.04744 | 18.89602 | 5301 ft | 173 kts | 170° |
| 2026-05-01 10:30 | 47.02462 | 18.89824 | 5498 ft | 160 kts | 180° |
| 2026-05-01 10:30 | 47.00174 | 18.89940 | 5373 ft | 171 kts | 175° |
| 2026-05-01 10:31 | 46.97767 | 18.90227 | 5025 ft | 173 kts | 174° |
| 2026-05-01 10:31 | 46.95459 | 18.90587 | 5132 ft | 162 kts | 172° |
| 2026-05-01 10:32 | 46.93214 | 18.90961 | 5221 ft | 161 kts | 176° |
| 2026-05-01 10:32 | 46.92099 | 18.91070 | 5290 ft | 161 kts | 174° |
| 2026-05-01 10:32 | 46.89846 | 18.91167 | 5380 ft | 163 kts | 180° |
| 2026-05-01 10:33 | 46.87596 | 18.91176 | 5477 ft | 163 kts | 176° |
| 2026-05-01 10:33 | 46.85334 | 18.91536 | 5573 ft | 164 kts | 169° |
| 2026-05-01 10:34 | 46.84185 | 18.91755 | 5581 ft | 169 kts | 172° |
| 2026-05-01 10:34 | 46.83020 | 18.91993 | 5589 ft | 169 kts | 166° |
| 2026-05-01 10:34 | 46.81873 | 18.92395 | 5549 ft | 168 kts | 162° |
| 2026-05-01 10:35 | 46.79739 | 18.93577 | 5663 ft | 166 kts | 160° |
| 2026-05-01 10:35 | 46.78634 | 18.94016 | 5649 ft | 168 kts | 163° |
| 2026-05-01 10:35 | 46.77500 | 18.94399 | 5644 ft | 167 kts | 170° |
| 2026-05-01 10:35 | 46.76344 | 18.94575 | 5661 ft | 167 kts | 174° |
| 2026-05-01 10:36 | 46.74122 | 18.95367 | 5651 ft | 166 kts | 150° |
| 2026-05-01 10:36 | 46.73110 | 18.96192 | 5632 ft | 166 kts | 143° |
| 2026-05-01 10:36 | 46.72221 | 18.97235 | 5625 ft | 163 kts | 131° |
| 2026-05-01 10:37 | 46.71386 | 18.98413 | 5452 ft | 171 kts | 138° |
| 2026-05-01 10:37 | 46.69046 | 18.99112 | 5019 ft | 175 kts | 200° |
| 2026-05-01 10:37 | 46.68027 | 18.98289 | 5097 ft | 169 kts | 215° |
| 2026-05-01 10:38 | 46.67075 | 18.97299 | 5150 ft | 166 kts | 218° |
| 2026-05-01 10:38 | 46.66155 | 18.96306 | 5225 ft | 164 kts | 219° |
| 2026-05-01 10:38 | 46.65249 | 18.95298 | 5266 ft | 165 kts | 219° |
| 2026-05-01 10:38 | 46.64380 | 18.94257 | 5363 ft | 160 kts | 221° |
| 2026-05-01 10:39 | 46.63513 | 18.93232 | 5415 ft | 163 kts | 220° |
| 2026-05-01 10:39 | 46.62616 | 18.92198 | 5464 ft | 166 kts | 219° |
| 2026-05-01 10:39 | 46.61619 | 18.91298 | 5396 ft | 173 kts | 204° |
| 2026-05-01 10:39 | 46.60489 | 18.90690 | 5218 ft | 178 kts | 197° |
| 2026-05-01 10:40 | 46.59290 | 18.90263 | 5121 ft | 175 kts | 188° |
| 2026-05-01 10:40 | 46.58086 | 18.90168 | 5034 ft | 174 kts | 181° |
| 2026-05-01 10:40 | 46.56874 | 18.90096 | 4948 ft | 173 kts | 183° |
| 2026-05-01 10:40 | 46.55669 | 18.89857 | 4772 ft | 177 kts | 190° |
| 2026-05-01 10:41 | 46.54488 | 18.89534 | 4816 ft | 168 kts | 190° |
| 2026-05-01 10:41 | 46.53379 | 18.89181 | 5039 ft | 158 kts | 194° |
| 2026-05-01 10:41 | 46.51184 | 18.88711 | 5222 ft | 164 kts | 178° |
| 2026-05-01 10:42 | 46.50046 | 18.88693 | 5309 ft | 163 kts | 177° |
| 2026-05-01 10:42 | 46.48923 | 18.88704 | 5409 ft | 161 kts | 179° |
| 2026-05-01 10:42 | 46.47800 | 18.88618 | 5504 ft | 163 kts | 182° |
| 2026-05-01 10:42 | 46.46665 | 18.88463 | 5581 ft | 165 kts | 184° |
| 2026-05-01 10:43 | 46.45527 | 18.88241 | 5678 ft | 165 kts | 188° |
| 2026-05-01 10:43 | 46.44389 | 18.87996 | 5715 ft | 167 kts | 185° |
| 2026-05-01 10:43 | 46.43223 | 18.87810 | 5697 ft | 169 kts | 181° |
| 2026-05-01 10:43 | 46.42064 | 18.87787 | 5707 ft | 170 kts | 178° |
| 2026-05-01 10:44 | 46.40879 | 18.87743 | 5695 ft | 170 kts | 180° |
| 2026-05-01 10:44 | 46.39706 | 18.87599 | 5718 ft | 169 kts | 183° |
| 2026-05-01 10:44 | 46.38536 | 18.87498 | 5725 ft | 170 kts | 180° |
| 2026-05-01 10:44 | 46.37351 | 18.87366 | 5696 ft | 171 kts | 184° |
| 2026-05-01 10:45 | 46.36165 | 18.87149 | 5711 ft | 172 kts | 186° |
| 2026-05-01 10:45 | 46.34990 | 18.86842 | 5758 ft | 172 kts | 188° |
| 2026-05-01 10:45 | 46.33808 | 18.86572 | 5756 ft | 172 kts | 185° |
| 2026-05-01 10:45 | 46.32614 | 18.86441 | 5713 ft | 172 kts | 177° |
| 2026-05-01 10:46 | 46.31448 | 18.86588 | 5676 ft | 170 kts | 167° |
| 2026-05-01 10:46 | 46.30263 | 18.86785 | 5556 ft | 176 kts | 179° |
| 2026-05-01 10:46 | 46.29037 | 18.86281 | 5048 ft | 194 kts | 204° |
| 2026-05-01 10:46 | 46.27772 | 18.85593 | 4687 ft | 191 kts | 198° |
| 2026-05-01 10:47 | 46.26552 | 18.85039 | 4600 ft | 182 kts | 195° |
| 2026-05-01 10:47 | 46.25377 | 18.84496 | 4598 ft | 171 kts | 198° |
| 2026-05-01 10:47 | 46.24285 | 18.83975 | 4797 ft | 163 kts | 196° |
| 2026-05-01 10:47 | 46.23196 | 18.83545 | 4965 ft | 162 kts | 192° |
| 2026-05-01 10:48 | 46.22085 | 18.83348 | 5093 ft | 159 kts | 175° |
| 2026-05-01 10:48 | 46.20995 | 18.83630 | 5150 ft | 161 kts | 162° |
| 2026-05-01 10:48 | 46.19920 | 18.84005 | 5226 ft | 161 kts | 164° |
| 2026-05-01 10:48 | 46.18820 | 18.84272 | 5355 ft | 160 kts | 174° |
| 2026-05-01 10:49 | 46.17694 | 18.84036 | 5428 ft | 167 kts | 197° |
| 2026-05-01 10:49 | 46.16604 | 18.83384 | 5407 ft | 170 kts | 206° |
| 2026-05-01 10:49 | 46.15565 | 18.82635 | 5537 ft | 165 kts | 205° |
| 2026-05-01 10:49 | 46.14504 | 18.81921 | 5516 ft | 170 kts | 204° |
| 2026-05-01 10:50 | 46.13441 | 18.81231 | 5617 ft | 165 kts | 194° |
| 2026-05-01 10:50 | 46.12327 | 18.81317 | 5451 ft | 166 kts | 155° |
| 2026-05-01 10:50 | 46.11291 | 18.82139 | 4809 ft | 174 kts | 137° |
| 2026-05-01 10:50 | 46.10489 | 18.83266 | 4531 ft | 148 kts | 124° |
| 2026-05-01 10:51 | 46.09900 | 18.84376 | 4401 ft | 131 kts | 120° |
| 2026-05-01 10:51 | 46.09434 | 18.85431 | 4285 ft | 122 kts | 112° |
| 2026-05-01 10:51 | 46.09064 | 18.86508 | 4148 ft | 118 kts | 106° |
| 2026-05-01 10:51 | 46.08849 | 18.87651 | 3987 ft | 119 kts | 95° |
| 2026-05-01 10:52 | 46.08678 | 18.88835 | 3885 ft | 120 kts | 98° |
| 2026-05-01 10:52 | 46.08482 | 18.89973 | 3894 ft | 112 kts | 96° |
| 2026-05-01 10:52 | 46.08326 | 18.91059 | 3726 ft | 109 kts | 95° |
| 2026-05-01 10:52 | 46.08191 | 18.92052 | 3602 ft | 97 kts | 95° |
| 2026-05-01 10:53 | 46.08091 | 18.92987 | 3413 ft | 93 kts | 85° |
| 2026-05-01 10:53 | 46.08242 | 18.93939 | 2976 ft | 104 kts | 69° |
| 2026-05-01 10:53 | 46.08418 | 18.94966 | 2760 ft | 103 kts | 76° |
| 2026-05-01 10:53 | 46.08481 | 18.95944 | 2657 ft | 98 kts | 83° |
| 2026-05-01 10:54 | 46.08574 | 18.96911 | 2525 ft | 97 kts | 71° |
| 2026-05-01 10:54 | 46.08723 | 18.97841 | 2544 ft | 95 kts | 71° |
| 2026-05-01 10:54 | 46.08888 | 18.98804 | 2274 ft | 100 kts | 66° |
| 2026-05-01 10:54 | 46.09165 | 18.99719 | 2156 ft | 99 kts | 60° |
| 2026-05-01 10:55 | 46.09419 | 19.00660 | 2028 ft | 105 kts | 63° |
| 2026-05-01 10:55 | 46.09640 | 19.01635 | 1949 ft | 100 kts | 65° |
| 2026-05-01 10:55 | 46.09896 | 19.02547 | 1856 ft | 97 kts | 67° |
| 2026-05-01 10:55 | 46.10174 | 19.03492 | 1613 ft | 107 kts | 65° |
| 2026-05-01 10:56 | 46.10446 | 19.04444 | 1498 ft | 96 kts | 69° |
| 2026-05-01 10:56 | 46.10718 | 19.05236 | 1412 ft | 82 kts | 40° |
| 2026-05-01 10:56 | 46.11243 | 19.05501 | 1246 ft | 79 kts | 1° |
| 2026-05-01 10:56 | 46.11765 | 19.05401 | 1122 ft | 76 kts | 349° |
| 2026-05-01 10:57 | 46.12291 | 19.05131 | 970 ft | 75 kts | 340° |
| 2026-05-01 10:57 | 46.12743 | 19.04879 | 835 ft | 68 kts | 350° |
| 2026-05-01 10:57 | 46.13170 | 19.04725 | 702 ft | 61 kts | 349° |
| 2026-05-01 10:57 | 46.13587 | 19.04595 | 550 ft | 63 kts | 347° |
| 2026-05-01 10:58 | 46.13993 | 19.04445 | 433 ft | 56 kts | 344° |
| 2026-05-01 10:58 | 46.14345 | 19.04309 | 393 ft | 48 kts | 354° |
| 2026-05-01 10:58 | 46.14604 | 19.04244 | 391 ft | 9 kts | 348° |
| 2026-05-01 10:58 | 46.14682 | 19.04216 | 392 ft | 16 kts | 343° |
| 2026-05-01 10:59 | 46.14772 | 19.04181 | 396 ft | 11 kts | 347° |
| 2026-05-01 10:59 | 46.14835 | 19.04183 | 397 ft | 8 kts | 48° |
| 2026-05-01 10:59 | 46.14879 | 19.04242 | 397 ft | 7 kts | 355° |
| 2026-05-01 10:59 | 46.14886 | 19.04227 | 397 ft | 0 kts | 256° |